createdAt,value
2023-03-18T00:02:10.366Z,11.20
2023-03-18T00:04:42.542Z,11.20
2023-03-18T00:07:14.466Z,11.20
2023-03-18T00:09:46.372Z,11.20
2023-03-18T00:12:18.209Z,11.20
2023-03-18T00:14:52.341Z,11.20
2023-03-18T00:17:24.246Z,11.20
2023-03-18T00:19:56.059Z,11.10
2023-03-18T00:22:28.313Z,11.10
2023-03-18T00:25:00.736Z,11.00
2023-03-18T00:27:32.565Z,11.00
2023-03-18T00:30:07.549Z,10.90
2023-03-18T00:32:39.719Z,11.00
2023-03-18T00:35:12.394Z,11.00
2023-03-18T00:37:45.184Z,11.10
2023-03-18T00:40:20.401Z,11.10
2023-03-18T00:42:57.579Z,11.10
2023-03-18T00:45:31.380Z,11.10
2023-03-18T00:48:03.733Z,11.00
2023-03-18T00:50:35.333Z,11.00
2023-03-18T00:53:07.243Z,11.00
2023-03-18T00:55:39.344Z,11.00
2023-03-18T00:58:12.578Z,10.90
2023-03-18T01:00:45.765Z,10.90
2023-03-18T01:03:17.926Z,11.00
2023-03-18T01:05:51.137Z,11.00
2023-03-18T01:08:23.027Z,11.10
2023-03-18T01:10:55.117Z,11.10
2023-03-18T01:13:28.014Z,11.10
2023-03-18T01:16:01.670Z,11.20
2023-03-18T01:18:35.160Z,11.30
2023-03-18T01:21:08.665Z,11.20
2023-03-18T01:23:40.971Z,11.30
2023-03-18T01:26:12.676Z,11.20
2023-03-18T01:28:44.765Z,11.20
2023-03-18T01:31:19.525Z,11.10
2023-03-18T01:33:51.740Z,11.10
2023-03-18T01:36:23.556Z,11.10
2023-03-18T01:38:56.253Z,11.10
2023-03-18T01:41:28.811Z,11.10
2023-03-18T01:44:02.115Z,11.10
2023-03-18T01:46:44.713Z,11.00
2023-03-18T01:49:21.321Z,11.00
2023-03-18T01:51:58.654Z,11.00
2023-03-18T01:54:35.652Z,11.00
2023-03-18T01:57:08.981Z,11.00
2023-03-18T01:59:46.804Z,11.00
2023-03-18T02:02:20.994Z,11.00
2023-03-18T02:05:06.139Z,10.90
2023-03-18T02:07:42.585Z,10.90
2023-03-18T02:10:20.006Z,10.90
2023-03-18T02:12:58.089Z,10.90
2023-03-18T02:15:33.944Z,10.90
2023-03-18T02:18:12.608Z,10.90
2023-03-18T02:20:59.906Z,10.90
2023-03-18T02:23:42.703Z,10.80
2023-03-18T02:26:22.781Z,10.80
2023-03-18T02:29:03.113Z,10.80
2023-03-18T02:31:37.145Z,10.70
2023-03-18T02:34:13.362Z,10.70
2023-03-18T02:36:45.847Z,10.70
2023-03-18T02:39:18.646Z,10.70
2023-03-18T02:41:50.549Z,10.70
2023-03-18T02:44:24.580Z,10.60
2023-03-18T02:47:01.877Z,10.60
2023-03-18T02:49:33.992Z,10.50
2023-03-18T02:52:06.072Z,10.50
2023-03-18T02:54:38.028Z,10.50
2023-03-18T02:57:09.791Z,10.50
2023-03-18T02:59:42.998Z,10.50
2023-03-18T03:02:14.921Z,10.40
2023-03-18T03:04:47.245Z,10.40
2023-03-18T03:07:19.098Z,10.40
2023-03-18T03:09:51.068Z,10.40
2023-03-18T03:12:22.964Z,10.40
2023-03-18T03:14:56.561Z,10.40
2023-03-18T03:17:29.008Z,10.40
2023-03-18T03:20:00.669Z,10.40
2023-03-18T03:22:32.517Z,10.50
2023-03-18T03:25:05.698Z,10.50
2023-03-18T03:27:37.893Z,10.40
2023-03-18T03:30:14.531Z,10.40
2023-03-18T03:32:47.533Z,10.40
2023-03-18T03:35:21.302Z,10.40
2023-03-18T03:37:52.858Z,10.40
2023-03-18T03:40:26.035Z,10.40
2023-03-18T03:42:57.981Z,10.40
2023-03-18T03:45:31.664Z,10.40
2023-03-18T03:48:04.010Z,10.40
2023-03-18T03:50:37.005Z,10.40
2023-03-18T03:53:09.442Z,10.40
2023-03-18T03:55:42.867Z,10.40
2023-03-18T03:58:15.085Z,10.30
2023-03-18T04:00:48.813Z,10.30
2023-03-18T04:03:21.025Z,10.30
2023-03-18T04:05:52.712Z,10.30
2023-03-18T04:08:24.767Z,10.30
2023-03-18T04:10:56.906Z,10.30
2023-03-18T04:13:29.056Z,10.30
2023-03-18T04:16:02.357Z,10.30
2023-03-18T04:18:34.293Z,10.20
2023-03-18T04:21:06.137Z,10.20
2023-03-18T04:23:37.988Z,10.20
2023-03-18T04:26:10.420Z,10.20
2023-03-18T04:28:42.300Z,10.10
2023-03-18T04:31:16.568Z,10.10
2023-03-18T04:33:48.432Z,10.10
2023-03-18T04:36:20.260Z,10.10
2023-03-18T04:38:52.450Z,10.10
2023-03-18T04:41:24.266Z,10.10
2023-03-18T04:43:56.114Z,10.10
2023-03-18T04:46:30.198Z,10.10
2023-03-18T04:49:02.195Z,10.10
2023-03-18T04:51:33.975Z,10.00
2023-03-18T04:54:06.390Z,10.00
2023-03-18T04:56:39.010Z,10.00
2023-03-18T04:59:10.981Z,10.00
2023-03-18T05:01:45.571Z,10.00
2023-03-18T05:04:17.684Z,10.00
2023-03-18T05:06:49.494Z,10.00
2023-03-18T05:09:21.437Z,10.00
2023-03-18T05:11:53.194Z,10.00
2023-03-18T05:14:25.277Z,9.90
2023-03-18T05:16:58.388Z,9.90
2023-03-18T05:19:30.395Z,9.90
2023-03-18T05:22:02.199Z,9.80
2023-03-18T05:24:33.979Z,9.80
2023-03-18T05:27:06.232Z,9.70
2023-03-18T05:29:40.177Z,9.70
2023-03-18T05:32:16.515Z,9.60
2023-03-18T05:34:48.081Z,9.60
2023-03-18T05:37:19.745Z,9.60
2023-03-18T05:39:51.645Z,9.50
2023-03-18T05:42:23.554Z,9.60
2023-03-18T05:44:57.919Z,9.50
2023-03-18T05:47:31.075Z,9.50
2023-03-18T05:50:03.758Z,9.50
2023-03-18T05:52:36.245Z,9.40
2023-03-18T05:55:08.935Z,9.40
2023-03-18T05:57:41.311Z,9.40
2023-03-18T06:00:18.650Z,9.40
2023-03-18T06:02:53.885Z,9.30
2023-03-18T06:05:27.080Z,9.30
2023-03-18T06:07:59.351Z,9.30
2023-03-18T06:10:31.375Z,9.20
2023-03-18T06:13:03.134Z,9.20
2023-03-18T06:15:35.062Z,9.20
2023-03-18T06:18:09.332Z,9.20
2023-03-18T06:20:41.140Z,9.30
2023-03-18T06:23:13.412Z,9.30
2023-03-18T06:25:46.684Z,9.30
2023-03-18T06:28:18.630Z,9.30
2023-03-18T06:30:50.743Z,9.30
2023-03-18T06:33:25.312Z,9.30
2023-03-18T06:35:58.011Z,9.40
2023-03-18T06:38:31.370Z,9.40
2023-03-18T06:41:03.670Z,9.40
2023-03-18T06:43:35.792Z,9.40
2023-03-18T06:46:07.687Z,9.40
2023-03-18T06:48:41.729Z,9.40
2023-03-18T06:51:13.532Z,9.50
2023-03-18T06:53:45.432Z,9.50
2023-03-18T06:56:17.242Z,9.50
2023-03-18T06:58:49.041Z,9.50
2023-03-18T07:01:20.988Z,9.50
2023-03-18T07:03:54.297Z,9.60
2023-03-18T07:06:26.111Z,9.60
2023-03-18T07:08:58.686Z,9.60
2023-03-18T07:11:30.692Z,9.70
2023-03-18T07:14:02.246Z,9.80
2023-03-18T07:16:34.195Z,9.80
2023-03-18T07:19:07.576Z,9.80
2023-03-18T07:21:42.825Z,9.90
2023-03-18T07:24:17.534Z,9.90
2023-03-18T07:26:50.307Z,9.90
2023-03-18T07:29:22.740Z,10.00
2023-03-18T07:31:55.032Z,10.10
2023-03-18T07:34:28.010Z,10.20
2023-03-18T07:36:59.915Z,10.30
2023-03-18T07:39:31.805Z,10.40
2023-03-18T07:42:03.673Z,10.40
2023-03-18T07:44:36.674Z,10.40
2023-03-18T07:47:08.732Z,10.40
2023-03-18T07:49:42.464Z,10.50
2023-03-18T07:52:14.360Z,10.50
2023-03-18T07:54:46.335Z,10.50
2023-03-18T07:57:18.236Z,10.60
2023-03-18T07:59:49.952Z,10.60
2023-03-18T08:02:21.845Z,10.60
2023-03-18T08:04:55.205Z,10.60
2023-03-18T08:07:26.900Z,10.70
2023-03-18T08:09:58.684Z,10.70
2023-03-18T08:12:45.075Z,10.80
2023-03-18T08:15:22.932Z,10.80
2023-03-18T08:17:54.751Z,10.80
2023-03-18T08:20:28.696Z,10.80
2023-03-18T08:23:00.650Z,10.80
2023-03-18T08:25:32.804Z,10.90
2023-03-18T08:28:07.492Z,10.90
2023-03-18T08:30:41.927Z,11.00
2023-03-18T08:33:14.241Z,11.00
2023-03-18T08:35:48.344Z,11.20
2023-03-18T08:38:20.242Z,11.30
2023-03-18T08:40:52.347Z,11.30
2023-03-18T08:43:25.143Z,11.40
2023-03-18T08:45:58.568Z,11.40
2023-03-18T08:48:30.665Z,11.60
2023-03-18T08:51:08.143Z,11.60
2023-03-18T08:53:41.359Z,11.70
2023-03-18T08:56:14.756Z,11.90
2023-03-18T08:58:48.222Z,11.90
2023-03-18T09:01:22.298Z,12.10
2023-03-18T09:03:56.188Z,12.20
2023-03-18T09:06:30.315Z,12.40
2023-03-18T09:09:02.262Z,12.50
2023-03-18T09:11:34.839Z,12.60
2023-03-18T09:14:08.208Z,12.70
2023-03-18T09:16:41.444Z,12.80
2023-03-18T09:19:14.793Z,12.80
2023-03-18T09:21:47.978Z,12.80
2023-03-18T09:24:19.838Z,12.80
2023-03-18T09:26:53.236Z,12.80
2023-03-18T09:29:25.036Z,12.90
2023-03-18T09:31:56.800Z,13.10
2023-03-18T09:34:30.481Z,13.30
2023-03-18T09:37:03.500Z,13.30
2023-03-18T09:39:35.330Z,13.50
2023-03-18T09:42:27.541Z,13.50
2023-03-18T09:45:05.107Z,13.70
2023-03-18T09:48:07.665Z,13.90
2023-03-18T09:50:50.665Z,13.90
2023-03-18T09:53:37.551Z,13.80
2023-03-18T09:56:17.815Z,13.70
2023-03-18T09:58:59.189Z,13.60
2023-03-18T10:01:37.723Z,13.60
2023-03-18T10:04:16.681Z,13.70
2023-03-18T10:06:53.281Z,13.60
2023-03-18T10:09:31.725Z,13.50
2023-03-18T10:12:23.506Z,13.50
2023-03-18T10:15:06.652Z,13.50
2023-03-18T10:17:45.437Z,13.40
2023-03-18T10:20:23.964Z,13.50
2023-03-18T10:23:02.880Z,13.50
2023-03-18T10:25:44.833Z,13.40
2023-03-18T10:28:57.473Z,13.40
2023-03-18T10:31:43.199Z,13.40
2023-03-18T10:34:21.846Z,13.80
2023-03-18T10:37:06.474Z,14.10
2023-03-18T10:39:41.284Z,14.30
2023-03-18T10:42:26.808Z,14.50
2023-03-18T10:45:09.553Z,14.60
2023-03-18T10:47:50.457Z,14.80
2023-03-18T10:50:28.559Z,14.90
2023-03-18T10:53:05.268Z,15.10
2023-03-18T10:55:47.615Z,15.20
2023-03-18T10:58:22.946Z,15.20
2023-03-18T11:00:55.163Z,15.40
2023-03-18T11:03:34.657Z,15.50
2023-03-18T11:06:16.352Z,15.60
2023-03-18T11:08:50.727Z,15.60
2023-03-18T11:11:32.802Z,15.60
2023-03-18T11:14:13.223Z,15.70
2023-03-18T11:16:51.105Z,15.80
2023-03-18T11:19:41.328Z,15.90
2023-03-18T11:22:32.072Z,16.00
2023-03-18T11:25:13.788Z,15.90
2023-03-18T11:27:49.421Z,15.70
2023-03-18T11:30:36.977Z,15.60
2023-03-18T11:33:17.413Z,15.60
2023-03-18T11:35:54.787Z,15.80
2023-03-18T11:38:32.469Z,15.80
2023-03-18T11:41:15.303Z,15.70
2023-03-18T11:44:01.066Z,15.70
2023-03-18T11:46:40.429Z,15.60
2023-03-18T11:49:17.674Z,15.60
2023-03-18T11:51:55.992Z,15.40
2023-03-18T11:54:51.146Z,15.40
2023-03-18T11:57:32.233Z,15.40
2023-03-18T12:00:19.402Z,15.30
2023-03-18T12:03:30.658Z,15.40
2023-03-18T12:06:16.415Z,15.40
2023-03-18T12:09:01.551Z,15.50
2023-03-18T12:11:58.992Z,15.70
2023-03-18T12:14:38.801Z,15.80
2023-03-18T12:17:30.936Z,15.80
2023-03-18T12:20:36.520Z,16.10
2023-03-18T12:23:14.108Z,16.30
2023-03-18T12:26:01.889Z,16.50
2023-03-18T12:28:46.564Z,16.60
2023-03-18T12:31:43.079Z,16.80
2023-03-18T12:34:34.156Z,16.80
2023-03-18T12:37:28.919Z,16.70
2023-03-18T12:40:18.692Z,16.80
2023-03-18T12:43:28.848Z,16.70
2023-03-18T12:46:13.108Z,16.90
2023-03-18T12:48:57.721Z,16.90
2023-03-18T12:51:39.789Z,16.80
2023-03-18T12:54:20.540Z,16.80
2023-03-18T12:57:01.085Z,16.90
2023-03-18T12:59:44.701Z,16.90
2023-03-18T13:02:39.564Z,16.90
2023-03-18T13:05:24.506Z,17.10
2023-03-18T13:08:19.519Z,17.40
2023-03-18T13:11:01.779Z,17.50
2023-03-18T13:13:38.285Z,17.60
2023-03-18T13:16:10.809Z,17.70
2023-03-18T13:18:50.938Z,17.80
2023-03-18T13:21:30.458Z,17.80
2023-03-18T13:24:44.868Z,17.90
2023-03-18T13:27:52.772Z,18.00
2023-03-18T13:30:35.366Z,17.80
2023-03-18T13:34:04.448Z,17.50
2023-03-18T13:37:22.703Z,17.20
2023-03-18T13:40:35.126Z,17.40
2023-03-18T13:43:14.472Z,17.60
2023-03-18T13:45:51.197Z,17.50
2023-03-18T13:48:28.929Z,17.40
2023-03-18T13:51:15.416Z,17.30
2023-03-18T13:53:51.375Z,17.50
2023-03-18T13:56:47.686Z,17.60
2023-03-18T13:59:51.436Z,17.70
2023-03-18T14:02:47.993Z,17.60
2023-03-18T14:05:54.176Z,17.40
2023-03-18T14:08:50.408Z,17.30
2023-03-18T14:11:53.118Z,17.40
2023-03-18T14:15:03.045Z,17.40
2023-03-18T14:17:49.536Z,17.40
2023-03-18T14:20:38.798Z,17.30
2023-03-18T14:23:34.497Z,17.30
2023-03-18T14:26:08.566Z,17.30
2023-03-18T14:28:49.333Z,17.30
2023-03-18T14:31:57.952Z,17.30
2023-03-18T14:34:33.578Z,17.30
2023-03-18T14:37:32.694Z,17.30
2023-03-18T14:40:08.706Z,17.30
2023-03-18T14:42:54.348Z,17.40
2023-03-18T14:45:34.885Z,17.40
2023-03-18T14:48:19.369Z,17.50
2023-03-18T14:50:53.772Z,17.60
2023-03-18T14:53:34.478Z,17.60
2023-03-18T14:56:17.682Z,17.50
2023-03-18T14:58:53.384Z,17.50
2023-03-18T15:01:39.377Z,17.50
2023-03-18T15:04:23.805Z,17.40
2023-03-18T15:07:01.359Z,17.40
2023-03-18T15:09:36.235Z,17.30
2023-03-18T15:12:26.175Z,17.30
2023-03-18T15:14:57.791Z,17.20
2023-03-18T15:17:30.409Z,17.20
2023-03-18T15:20:05.473Z,17.00
2023-03-18T15:22:38.558Z,16.90
2023-03-18T15:25:21.218Z,16.90
2023-03-18T15:27:54.894Z,16.90
2023-03-18T15:30:31.156Z,16.90
2023-03-18T15:33:18.899Z,17.00
2023-03-18T15:35:58.810Z,16.90
2023-03-18T15:38:33.860Z,17.00
2023-03-18T15:41:11.982Z,17.00
2023-03-18T15:43:47.142Z,16.90
2023-03-18T15:46:25.685Z,16.80
2023-03-18T15:49:01.593Z,16.80
2023-03-18T15:51:40.330Z,16.80
2023-03-18T15:54:26.439Z,16.80
2023-03-18T15:57:01.164Z,16.60
2023-03-18T15:59:35.957Z,16.60
2023-03-18T16:02:16.324Z,16.50
2023-03-18T16:04:48.622Z,16.60
2023-03-18T16:07:28.169Z,16.50
2023-03-18T16:10:00.129Z,16.50
2023-03-18T16:12:37.391Z,16.50
2023-03-18T16:15:14.881Z,16.40
2023-03-18T16:17:48.606Z,16.40
2023-03-18T16:20:24.811Z,16.40
2023-03-18T16:22:59.680Z,16.40
2023-03-18T16:25:33.940Z,16.40
2023-03-18T16:28:06.133Z,16.40
2023-03-18T16:30:40.103Z,16.40
2023-03-18T16:33:19.021Z,16.40
2023-03-18T16:35:58.414Z,16.40
2023-03-18T16:38:33.503Z,16.30
2023-03-18T16:41:05.437Z,16.30
2023-03-18T16:43:37.424Z,16.30
2023-03-18T16:46:15.862Z,16.30
2023-03-18T16:48:47.626Z,16.30
2023-03-18T16:51:19.455Z,16.30
2023-03-18T16:53:53.711Z,16.30
2023-03-18T16:56:26.445Z,16.30
2023-03-18T16:58:58.463Z,16.20
2023-03-18T17:01:31.213Z,16.20
2023-03-18T17:04:04.014Z,16.10
2023-03-18T17:06:35.724Z,16.10
2023-03-18T17:09:09.529Z,16.00
2023-03-18T17:11:42.081Z,15.90
2023-03-18T17:14:29.916Z,15.80
2023-03-18T17:17:06.630Z,15.80
2023-03-18T17:19:39.811Z,15.60
2023-03-18T17:22:24.194Z,15.50
2023-03-18T17:24:58.254Z,15.40
2023-03-18T17:27:35.152Z,15.40
2023-03-18T17:30:17.103Z,15.30
2023-03-18T17:32:49.360Z,15.20
2023-03-18T17:35:26.119Z,15.10
2023-03-18T17:37:57.815Z,15.00
2023-03-18T17:40:33.465Z,14.80
2023-03-18T17:43:05.713Z,14.70
2023-03-18T17:45:37.734Z,14.80
2023-03-18T17:48:21.348Z,14.70
2023-03-18T17:50:56.448Z,14.70
2023-03-18T17:53:35.575Z,14.50
2023-03-18T17:56:13.942Z,14.40
2023-03-18T17:58:49.476Z,14.30
2023-03-18T18:01:26.554Z,14.20
2023-03-18T18:04:01.640Z,14.20
2023-03-18T18:06:34.775Z,14.20
2023-03-18T18:09:07.605Z,14.10
2023-03-18T18:11:45.096Z,13.90
2023-03-18T18:14:26.099Z,14.00
2023-03-18T18:16:59.490Z,13.80
2023-03-18T18:19:31.348Z,13.80
2023-03-18T18:22:04.436Z,13.60
2023-03-18T18:24:36.554Z,13.60
2023-03-18T18:27:12.961Z,13.40
2023-03-18T18:29:45.879Z,13.30
2023-03-18T18:32:18.948Z,13.20
2023-03-18T18:34:50.769Z,13.10
2023-03-18T18:37:22.448Z,13.10
2023-03-18T18:39:54.242Z,13.20
2023-03-18T18:42:27.200Z,13.40
2023-03-18T18:44:59.334Z,13.00
2023-03-18T18:47:31.278Z,12.80
2023-03-18T18:50:03.023Z,13.00
2023-03-18T18:52:35.014Z,13.00
2023-03-18T18:55:07.007Z,12.90
2023-03-18T18:57:45.718Z,12.70
2023-03-18T19:00:24.470Z,12.60
2023-03-18T19:02:58.173Z,12.50
2023-03-18T19:05:30.614Z,12.70
2023-03-18T19:08:03.864Z,12.40
2023-03-18T19:10:35.553Z,12.30
2023-03-18T19:13:14.957Z,12.30
2023-03-18T19:15:48.588Z,12.20
2023-03-18T19:18:26.815Z,12.20
2023-03-18T19:20:58.607Z,12.00
2023-03-18T19:23:34.271Z,12.10
2023-03-18T19:26:07.683Z,12.10
2023-03-18T19:29:01.344Z,12.10
2023-03-18T19:31:35.364Z,12.10
2023-03-18T19:34:16.123Z,12.30
2023-03-18T19:36:52.654Z,12.20
2023-03-18T19:39:27.698Z,12.00
2023-03-18T19:41:59.670Z,12.20
2023-03-18T19:44:32.936Z,12.00
2023-03-18T19:47:05.506Z,12.00
2023-03-18T19:49:39.335Z,12.10
2023-03-18T19:52:21.161Z,12.10
2023-03-18T19:54:54.438Z,12.20
2023-03-18T19:57:32.510Z,12.20
2023-03-18T20:00:10.442Z,12.10
2023-03-18T20:02:42.018Z,12.20
2023-03-18T20:05:22.208Z,12.30
2023-03-18T20:07:54.314Z,12.20
2023-03-18T20:10:26.184Z,12.10
2023-03-18T20:12:58.150Z,12.10
2023-03-18T20:15:31.585Z,12.10
2023-03-18T20:18:03.616Z,12.10
2023-03-18T20:20:36.906Z,12.00
2023-03-18T20:23:13.324Z,12.10
2023-03-18T20:25:48.083Z,12.10
2023-03-18T20:28:23.631Z,12.20
2023-03-18T20:30:59.201Z,12.10
2023-03-18T20:33:33.202Z,12.20
2023-03-18T20:36:06.169Z,12.20
2023-03-18T20:38:40.901Z,12.00
2023-03-18T20:41:16.102Z,12.10
2023-03-18T20:43:49.314Z,12.20
2023-03-18T20:46:25.550Z,12.20
2023-03-18T20:48:57.845Z,12.20
2023-03-18T20:51:34.716Z,12.20
2023-03-18T20:54:19.564Z,12.20
2023-03-18T20:56:51.728Z,12.30
2023-03-18T20:59:23.367Z,12.20
2023-03-18T21:01:56.704Z,12.30
2023-03-18T21:04:28.292Z,12.30
2023-03-18T21:07:00.155Z,12.30
2023-03-18T21:09:33.371Z,12.20
2023-03-18T21:12:06.812Z,12.20
2023-03-18T21:14:38.641Z,12.20
2023-03-18T21:17:18.159Z,12.10
2023-03-18T21:19:49.973Z,12.10
2023-03-18T21:22:28.403Z,12.10
2023-03-18T21:25:01.327Z,12.10
2023-03-18T21:27:33.110Z,12.20
2023-03-18T21:30:05.073Z,12.20
2023-03-18T21:32:41.014Z,12.10
2023-03-18T21:35:20.334Z,12.10
2023-03-18T21:37:52.011Z,12.10
2023-03-18T21:40:27.755Z,12.10
2023-03-18T21:42:59.567Z,12.00
2023-03-18T21:45:33.123Z,12.00
2023-03-18T21:48:09.692Z,12.00
2023-03-18T21:50:41.558Z,11.90
2023-03-18T21:53:18.762Z,11.90
2023-03-18T21:55:51.788Z,11.90
2023-03-18T21:58:26.525Z,11.90
2023-03-18T22:01:00.615Z,11.90
2023-03-18T22:03:35.139Z,11.90
2023-03-18T22:06:06.789Z,11.90
2023-03-18T22:08:38.634Z,11.90
2023-03-18T22:11:14.689Z,11.90
2023-03-18T22:13:48.241Z,11.90
2023-03-18T22:16:20.992Z,11.90
2023-03-18T22:18:53.963Z,11.80
2023-03-18T22:21:29.568Z,11.80
2023-03-18T22:24:01.445Z,11.80
2023-03-18T22:26:33.092Z,11.80
2023-03-18T22:29:04.869Z,11.70
2023-03-18T22:31:37.433Z,11.70
2023-03-18T22:34:22.543Z,11.70
2023-03-18T22:36:54.459Z,11.70
2023-03-18T22:39:26.457Z,11.70
2023-03-18T22:41:58.126Z,11.60
2023-03-18T22:44:30.792Z,11.70
2023-03-18T22:47:02.951Z,11.60
2023-03-18T22:49:36.270Z,11.50
2023-03-18T22:52:11.867Z,11.50
2023-03-18T22:54:43.477Z,11.50
2023-03-18T22:57:21.267Z,11.50
2023-03-18T22:59:53.674Z,11.40
2023-03-18T23:02:28.600Z,11.40
2023-03-18T23:05:02.324Z,11.40
2023-03-18T23:07:36.210Z,11.40
2023-03-18T23:10:09.730Z,11.40
2023-03-18T23:12:41.933Z,11.40
2023-03-18T23:15:18.666Z,11.40
2023-03-18T23:17:51.825Z,11.50
2023-03-18T23:20:24.883Z,11.40
2023-03-18T23:22:56.828Z,11.40
2023-03-18T23:25:28.694Z,11.30
2023-03-18T23:28:00.638Z,11.30
2023-03-18T23:30:33.034Z,11.20
2023-03-18T23:33:04.885Z,11.20
2023-03-18T23:35:38.830Z,11.20
2023-03-18T23:38:10.939Z,11.20
2023-03-18T23:40:42.666Z,11.10
2023-03-18T23:43:14.573Z,11.20
2023-03-18T23:45:46.569Z,11.10
2023-03-18T23:48:18.313Z,11.00
2023-03-18T23:50:51.910Z,11.00
2023-03-18T23:53:23.769Z,11.00
2023-03-18T23:55:55.881Z,11.00
2023-03-18T23:58:27.864Z,11.00
